Copenhagen, New York
Current Conditions -  °F | °C
As of 9:58 PM on Tuesday 21 Oct 2014 (Local Time) from KGTB Reporting Station
Overcast Overcast  
Wind Chill: 35°   Ceiling: 600
Heat Index: 43°   Visibility: 10mi
Dew Point: 42°   Wind: 16mph
Humidity: 99%   Direction: 40°NE
Pressure: 30.07"   Gusts: 22mph
Location:  43.89°N, 75.67°W
Report Text: KGTB 220158Z AUTO 04014G19KT 10SM OVC006 06/06 A3007 RMK AO2 SLP187 T00590058
Loading
Personal Weather Stations






























Interactive Weather Map
Tropical Storm Tracking
New forecast layout! Learn more

10-Day Weather Forecast

Advertisements
Track Severe Weather on mobile